createdAt,value
2023-05-04T00:02:40.025Z,3.80
2023-05-04T00:06:57.307Z,3.80
2023-05-04T00:11:14.428Z,3.70
2023-05-04T00:15:31.568Z,3.60
2023-05-04T00:19:48.747Z,3.60
2023-05-04T00:24:06.122Z,3.50
2023-05-04T00:28:23.291Z,3.40
2023-05-04T00:32:40.555Z,3.50
2023-05-04T00:36:57.780Z,3.50
2023-05-04T00:41:15.337Z,3.40
2023-05-04T00:45:32.843Z,3.20
2023-05-04T00:49:51.950Z,3.10
2023-05-04T00:54:09.169Z,3.10
2023-05-04T00:58:26.674Z,3.00
2023-05-04T01:02:43.930Z,3.00
2023-05-04T01:07:17.052Z,3.00
2023-05-04T01:11:41.125Z,3.00
2023-05-04T01:15:59.266Z,2.90
2023-05-04T01:20:16.474Z,2.90
2023-05-04T01:24:34.022Z,2.90
2023-05-04T01:29:19.939Z,2.70
2023-05-04T01:33:38.383Z,2.70
2023-05-04T01:37:55.969Z,2.70
2023-05-04T01:42:13.244Z,2.70
2023-05-04T01:46:30.427Z,2.50
2023-05-04T01:50:47.640Z,2.50
2023-05-04T01:55:05.121Z,2.60
2023-05-04T01:59:22.294Z,2.60
2023-05-04T02:03:39.784Z,2.60
2023-05-04T02:07:57.043Z,2.60
2023-05-04T02:12:14.151Z,2.50
2023-05-04T02:16:31.576Z,2.30
2023-05-04T02:20:48.843Z,2.30
2023-05-04T02:25:06.532Z,2.30
2023-05-04T02:29:23.656Z,2.20
2023-05-04T02:33:40.805Z,2.20
2023-05-04T02:37:57.921Z,2.30
2023-05-04T02:42:15.157Z,2.10
2023-05-04T02:46:32.569Z,2.10
2023-05-04T02:50:49.736Z,2.10
2023-05-04T02:55:07.237Z,2.10
2023-05-04T02:59:24.358Z,2.10
2023-05-04T03:03:41.532Z,2.10
2023-05-04T03:07:58.747Z,2.10
2023-05-04T03:12:16.073Z,2.00
2023-05-04T03:16:33.340Z,1.90
2023-05-04T03:20:50.534Z,1.90
2023-05-04T03:25:08.158Z,1.90
2023-05-04T03:29:26.264Z,1.90
2023-05-04T03:33:43.450Z,1.80
2023-05-04T03:38:00.763Z,1.90
2023-05-04T03:42:17.877Z,1.90
2023-05-04T03:46:35.073Z,1.90
2023-05-04T03:50:52.842Z,1.90
2023-05-04T03:55:10.369Z,1.80
2023-05-04T03:59:27.582Z,1.90
2023-05-04T04:03:44.861Z,1.90
2023-05-04T04:08:02.092Z,2.00
2023-05-04T04:12:20.447Z,2.00
2023-05-04T04:16:37.683Z,2.10
2023-05-04T04:20:56.112Z,2.00
2023-05-04T04:25:13.603Z,2.00
2023-05-04T04:29:31.011Z,2.10
2023-05-04T04:33:50.554Z,2.10
2023-05-04T04:38:07.651Z,2.10
2023-05-04T04:42:24.751Z,2.10
2023-05-04T04:46:41.897Z,2.20
2023-05-04T04:50:59.169Z,2.40
2023-05-04T04:55:17.243Z,2.50
2023-05-04T04:59:34.452Z,2.70
2023-05-04T05:03:51.713Z,2.80
2023-05-04T05:08:08.824Z,2.90
2023-05-04T05:12:26.059Z,2.90
2023-05-04T05:16:43.459Z,3.10
2023-05-04T05:21:00.912Z,3.30
2023-05-04T05:25:18.971Z,3.50
2023-05-04T05:29:37.091Z,3.70
2023-05-04T05:33:54.320Z,3.90
2023-05-04T05:38:11.807Z,4.30
2023-05-04T05:42:32.330Z,4.50
2023-05-04T05:46:49.956Z,4.70
2023-05-04T05:51:07.057Z,4.90
2023-05-04T05:55:24.186Z,5.20
2023-05-04T05:59:42.777Z,5.40
2023-05-04T06:04:00.260Z,5.60
2023-05-04T06:08:18.424Z,5.90
2023-05-04T06:12:35.656Z,6.30
2023-05-04T06:16:52.859Z,6.80
2023-05-04T06:21:10.379Z,7.00
2023-05-04T06:25:27.643Z,7.30
2023-05-04T06:29:44.885Z,7.70
2023-05-04T06:34:02.090Z,8.00
2023-05-04T06:38:19.826Z,8.30
2023-05-04T06:42:36.964Z,8.60
2023-05-04T06:46:54.577Z,8.70
2023-05-04T06:51:11.807Z,9.00
2023-05-04T06:55:29.052Z,9.40
2023-05-04T06:59:46.320Z,9.70
2023-05-04T07:04:03.712Z,10.10
2023-05-04T07:08:21.468Z,10.30
2023-05-04T07:12:38.652Z,10.50
2023-05-04T07:16:55.910Z,10.80
2023-05-04T07:21:26.880Z,11.10
2023-05-04T07:25:45.869Z,11.40
2023-05-04T07:30:04.248Z,12.20
2023-05-04T07:34:25.164Z,12.60
2023-05-04T07:38:48.163Z,13.40
2023-05-04T07:43:05.783Z,13.90
2023-05-04T07:47:24.356Z,14.40
2023-05-04T07:51:41.914Z,14.90
2023-05-04T07:56:07.925Z,15.40
2023-05-04T08:00:26.043Z,16.30
2023-05-04T08:04:43.252Z,16.10
2023-05-04T08:09:00.527Z,15.90
2023-05-04T08:13:17.786Z,16.90
2023-05-04T08:17:35.199Z,17.40
2023-05-04T08:21:53.083Z,16.90
2023-05-04T08:26:10.698Z,17.90
2023-05-04T08:30:28.089Z,17.10
2023-05-04T08:34:45.257Z,17.40
2023-05-04T08:39:02.413Z,18.30
2023-05-04T08:43:19.686Z,17.80
2023-05-04T08:47:36.939Z,18.60
2023-05-04T08:51:54.737Z,19.00
2023-05-04T08:56:14.118Z,18.10
2023-05-04T09:00:33.152Z,18.90
2023-05-04T09:04:53.949Z,19.00
2023-05-04T09:09:11.678Z,17.90
2023-05-04T09:13:28.821Z,18.20
2023-05-04T09:18:06.241Z,18.10
2023-05-04T09:22:23.703Z,18.80
2023-05-04T09:26:41.032Z,19.20
2023-05-04T09:31:00.605Z,18.40
2023-05-04T09:35:31.950Z,20.00
2023-05-04T09:39:56.374Z,19.10
2023-05-04T09:44:25.951Z,19.60
2023-05-04T09:48:55.617Z,18.70
2023-05-04T09:53:13.738Z,19.50
2023-05-04T09:57:31.223Z,19.40
2023-05-04T10:01:48.735Z,19.40
2023-05-04T10:06:06.273Z,20.40
2023-05-04T10:10:23.594Z,21.10
2023-05-04T10:14:43.018Z,20.20
2023-05-04T10:19:18.293Z,21.10
2023-05-04T10:24:00.245Z,21.60
2023-05-04T10:28:29.683Z,21.20
2023-05-04T10:32:53.776Z,20.70
2023-05-04T10:37:18.163Z,20.00
2023-05-04T10:41:35.290Z,21.30
2023-05-04T10:45:52.524Z,19.30
2023-05-04T10:50:14.761Z,21.20
2023-05-04T10:54:32.022Z,20.70
2023-05-04T10:58:49.552Z,21.60
2023-05-04T11:03:07.667Z,20.60
2023-05-04T11:07:34.379Z,21.80
2023-05-04T11:11:53.211Z,21.90
2023-05-04T11:16:12.541Z,21.60
2023-05-04T11:20:29.909Z,22.30
2023-05-04T11:24:48.781Z,20.60
2023-05-04T11:29:13.860Z,22.00
2023-05-04T11:33:31.215Z,21.50
2023-05-04T11:37:50.382Z,22.80
2023-05-04T11:42:10.948Z,21.40
2023-05-04T11:46:28.492Z,22.30
2023-05-04T11:50:46.632Z,22.60
2023-05-04T11:55:04.306Z,22.30
2023-05-04T11:59:21.562Z,23.40
2023-05-04T12:03:53.190Z,21.80
2023-05-04T12:08:21.395Z,22.00
2023-05-04T12:12:38.721Z,22.20
2023-05-04T12:16:57.751Z,22.80
2023-05-04T12:21:21.414Z,21.80
2023-05-04T12:25:47.317Z,21.80
2023-05-04T12:30:13.456Z,21.60
2023-05-04T12:34:31.194Z,22.80
2023-05-04T12:38:48.655Z,22.70
2023-05-04T12:43:06.254Z,23.80
2023-05-04T12:47:25.057Z,22.70
2023-05-04T12:51:42.388Z,21.70
2023-05-04T12:56:01.558Z,23.20
2023-05-04T13:00:19.323Z,22.50
2023-05-04T13:04:36.830Z,22.50
2023-05-04T13:08:54.204Z,23.40
2023-05-04T13:13:11.583Z,22.70
2023-05-04T13:17:29.951Z,22.90
2023-05-04T13:21:48.225Z,22.90
2023-05-04T13:26:06.499Z,22.70
2023-05-04T13:30:24.008Z,23.60
2023-05-04T13:34:43.105Z,23.40
2023-05-04T13:39:00.797Z,23.20
2023-05-04T13:43:18.962Z,22.10
2023-05-04T13:47:40.620Z,22.70
2023-05-04T13:51:58.978Z,23.60
2023-05-04T13:56:16.409Z,22.80
2023-05-04T14:00:33.690Z,23.80
2023-05-04T14:04:50.950Z,23.10
2023-05-04T14:09:08.690Z,23.50
2023-05-04T14:13:29.225Z,22.00
2023-05-04T14:17:47.117Z,21.60
2023-05-04T14:22:04.351Z,22.40
2023-05-04T14:26:21.832Z,23.70
2023-05-04T14:30:40.360Z,23.90
2023-05-04T14:35:08.188Z,21.00
2023-05-04T14:39:27.410Z,22.50
2023-05-04T14:43:45.124Z,22.60
2023-05-04T14:48:03.028Z,22.70
2023-05-04T14:52:20.533Z,22.20
2023-05-04T14:56:37.756Z,23.50
2023-05-04T15:00:55.418Z,24.10
2023-05-04T15:05:12.917Z,23.90
2023-05-04T15:09:30.177Z,23.20
2023-05-04T15:13:59.026Z,22.60
2023-05-04T15:18:17.032Z,22.50
2023-05-04T15:22:35.129Z,22.00
2023-05-04T15:26:52.687Z,22.50
2023-05-04T15:31:10.537Z,22.10
2023-05-04T15:35:27.995Z,21.90
2023-05-04T15:39:45.259Z,21.30
2023-05-04T15:44:09.012Z,21.10
2023-05-04T15:48:27.833Z,20.30
2023-05-04T15:52:45.081Z,20.10
2023-05-04T15:57:02.914Z,20.10
2023-05-04T16:01:20.341Z,20.60
2023-05-04T16:05:37.814Z,20.70
2023-05-04T16:09:55.204Z,20.70
2023-05-04T16:14:12.662Z,20.40
2023-05-04T16:18:30.015Z,20.20
2023-05-04T16:22:50.376Z,19.80
2023-05-04T16:27:07.999Z,19.90
2023-05-04T16:31:25.289Z,19.90
2023-05-04T16:35:42.698Z,19.80
2023-05-04T16:40:12.170Z,19.80
2023-05-04T16:44:31.710Z,19.70
2023-05-04T16:48:49.175Z,19.60
2023-05-04T16:53:06.568Z,19.60
2023-05-04T16:57:23.866Z,19.50
2023-05-04T17:01:41.764Z,19.30
2023-05-04T17:05:59.902Z,19.10
2023-05-04T17:10:18.925Z,19.00
2023-05-04T17:14:36.317Z,18.90
2023-05-04T17:18:53.634Z,18.70
2023-05-04T17:23:11.525Z,18.50
2023-05-04T17:27:29.159Z,18.50
2023-05-04T17:31:48.167Z,18.60
2023-05-04T17:36:07.948Z,18.40
2023-05-04T17:40:27.233Z,18.30
2023-05-04T17:44:44.956Z,18.20
2023-05-04T17:49:03.298Z,18.00
2023-05-04T17:53:20.933Z,17.80
2023-05-04T17:57:38.495Z,17.40
2023-05-04T18:01:57.788Z,17.20
2023-05-04T18:06:20.063Z,16.90
2023-05-04T18:10:38.084Z,16.70
2023-05-04T18:14:55.797Z,16.30
2023-05-04T18:19:13.491Z,16.10
2023-05-04T18:23:31.280Z,15.90
2023-05-04T18:27:48.994Z,15.50
2023-05-04T18:32:09.545Z,15.30
2023-05-04T18:36:27.185Z,15.10
2023-05-04T18:40:44.794Z,14.90
2023-05-04T18:45:02.504Z,14.60
2023-05-04T18:49:22.639Z,14.40
2023-05-04T18:53:39.963Z,14.30
2023-05-04T18:57:59.197Z,14.10
2023-05-04T19:02:16.500Z,14.00
2023-05-04T19:06:33.995Z,13.80
2023-05-04T19:10:53.081Z,13.50
2023-05-04T19:15:10.447Z,13.40
2023-05-04T19:19:27.959Z,13.20
2023-05-04T19:23:45.373Z,13.10
2023-05-04T19:28:08.592Z,12.90
2023-05-04T19:32:26.560Z,12.60
2023-05-04T19:36:43.876Z,12.50
2023-05-04T19:41:02.537Z,12.20
2023-05-04T19:45:19.878Z,11.90
2023-05-04T19:49:37.138Z,11.50
2023-05-04T19:53:54.439Z,11.20
2023-05-04T19:58:12.045Z,11.10
2023-05-04T20:02:29.898Z,11.10
2023-05-04T20:06:47.267Z,11.00
2023-05-04T20:11:06.408Z,10.90
2023-05-04T20:15:24.677Z,10.90
2023-05-04T20:19:42.959Z,10.70
2023-05-04T20:24:00.596Z,10.60
2023-05-04T20:28:18.002Z,10.60
2023-05-04T20:32:38.031Z,10.60
2023-05-04T20:36:55.635Z,10.70
2023-05-04T20:41:12.888Z,10.60
2023-05-04T20:45:30.957Z,10.30
2023-05-04T20:49:48.293Z,9.90
2023-05-04T20:54:05.743Z,9.80
2023-05-04T20:58:23.262Z,9.70
2023-05-04T21:02:40.715Z,9.60
2023-05-04T21:06:58.201Z,9.50
2023-05-04T21:11:15.638Z,9.50
2023-05-04T21:15:32.984Z,9.40
2023-05-04T21:19:50.340Z,9.30
2023-05-04T21:24:12.851Z,9.20
2023-05-04T21:28:31.146Z,9.10
2023-05-04T21:32:49.250Z,8.90
2023-05-04T21:37:07.270Z,8.80
2023-05-04T21:41:24.887Z,8.80
2023-05-04T21:45:42.114Z,8.70
2023-05-04T21:50:00.841Z,8.70
2023-05-04T21:54:18.187Z,8.60
2023-05-04T21:58:41.468Z,8.60
2023-05-04T22:02:59.198Z,8.50
2023-05-04T22:07:16.445Z,8.40
2023-05-04T22:11:33.672Z,8.30
2023-05-04T22:15:51.397Z,8.30
2023-05-04T22:20:09.342Z,8.30
2023-05-04T22:24:27.174Z,8.30
2023-05-04T22:28:44.573Z,8.30
2023-05-04T22:33:01.997Z,8.30
2023-05-04T22:37:19.369Z,8.20
2023-05-04T22:41:36.589Z,8.20
2023-05-04T22:45:53.833Z,8.10
2023-05-04T22:50:11.658Z,8.10
2023-05-04T22:54:28.909Z,8.10
2023-05-04T22:58:46.192Z,7.90
2023-05-04T23:03:03.781Z,7.70
2023-05-04T23:07:21.700Z,7.60
2023-05-04T23:11:39.174Z,7.70
2023-05-04T23:15:56.818Z,7.60
2023-05-04T23:20:14.138Z,7.60
2023-05-04T23:24:31.366Z,7.60
2023-05-04T23:28:48.764Z,7.50
2023-05-04T23:33:06.352Z,7.40
2023-05-04T23:37:23.720Z,7.40
2023-05-04T23:41:41.081Z,7.40
2023-05-04T23:46:02.858Z,7.30
2023-05-04T23:50:20.245Z,7.30
2023-05-04T23:54:38.019Z,7.30
2023-05-04T23:58:55.617Z,7.30
